Tropical Cyclones
[Index]
Main Index Home Page Stock Weather Photos Extreme Storms Discussion Storm News and Storm Chasing Reports Tropical Cyclones / Hurricanes / Typhoons Weather Data and Links Wild Fires / Bushfires Weather Observation Techniques Weather Picture Catalogue Tornado Pictures and Reports Stock Video Footage and DVDs for sale
Season 1957-1958 Tropical Cyclone 195805 Track Map
Season 1957-1958 Summaries: [BoM-AU] [JTWC-AU] [JTWC-SIO] [JTWC-SPAC] [JTWC-SH]
<<- Previous TC | JTWC 1957-1958 Season | Next TC ->>

click for intensity scale information  Lat/long Grid: Show Hide

 Date Labels: Show Hide

Joint Typhoon Warning Centre Cyclone Data

Name: 195805
Number: 312 / 5805

01 Jan 1958 00:00 UTC to 08 Jan 1958 12:00 UTC

    date/time    lat    long     hPa   cat  kts
1958-01-01 00    8.3   176.5                  10          
1958-01-01 06    8.5   177.3                  20          
1958-01-01 12    8.8   178.1                  25          
1958-01-01 18    9.1   178.7                  30          
1958-01-02 00    9.4   179.3                  30          
1958-01-02 06    9.8   179.9W                 30          
1958-01-02 12   10.1   179.0W                 25          
1958-01-02 18   10.4   178.4W                 25          
1958-01-03 00   10.6   178.0W                 25          
1958-01-03 06   10.9   177.7W                 25          
1958-01-03 12   11.2   177.6W                 30          
1958-01-03 18   11.4   177.5W                 30          
1958-01-04 00   11.5   177.5W                 30          
1958-01-04 06   11.8   177.5W                 30          
1958-01-04 12   12.1   177.6W                 30          
1958-01-04 18   12.4   177.7W                 25          
1958-01-05 00   12.6   177.8W                 25          
1958-01-05 06   12.8   177.9W                 25          
1958-01-05 12   13.0   178.0W                 25          
1958-01-05 18   13.4   178.3W                 25          
1958-01-06 00   14.0   178.7W                 25          
1958-01-06 06   15.0   179.0W                 35          
1958-01-06 12   16.0   179.3W           1     45          
1958-01-06 18   16.6   179.4W           2     55          
1958-01-07 00   17.4   179.5W           2     60          
1958-01-07 06   19.0   180.0            3     75          
1958-01-07 12   20.9   179.9W           1     45          
1958-01-07 18   22.5   179.1W                 35          
1958-01-08 00   24.0   178.0W                 25          
1958-01-08 06   25.7   176.7W                 20          
1958-01-08 12   27.5   175.3W                 15          
Winds are 1-min average.

Tropical cyclone tracks developed by Michael Bath using data from the Joint Typhoon Warning Centre Best Tracks and Google Maps.


[Australian Severe Weather index] [Copyright Notice] [Email Contacts] [Search This Site] [Privacy Policy]
Document: tropical_cyclone_195805.htm Updated: 18 September 2016